Time,TemperatureF,DewpointF,PressureIn,WindDirection,WindDirectionDegrees,WindSpeedMPH,WindSpeedGustMPH,Humidity,HourlyPrecipIn,Conditions,Clouds,dailyrainin,SoftwareType,DateUTC
2013-02-06 00:02:00,13.0,0.0,-100.00,East,95,1.0,2.0,55,0.00,,,-99.99,,2013-02-06 05:02:00,
2013-02-06 00:12:00,13.0,0.0,-100.00,SSW,205,1.0,2.0,56,0.00,,,-99.99,,2013-02-06 05:12:00,
2013-02-06 00:22:00,13.0,-1.0,-100.00,ENE,75,0.0,2.0,54,0.00,,,-99.99,,2013-02-06 05:22:00,
2013-02-06 00:32:00,13.0,-1.0,-100.00,East,90,1.0,2.0,53,0.00,,,-99.99,,2013-02-06 05:32:00,
2013-02-06 00:41:00,13.0,0.0,-100.00,NE,35,1.0,2.0,56,0.00,,,-99.99,,2013-02-06 05:41:00,
2013-02-06 00:52:00,13.0,1.0,-100.00,NE,55,1.0,1.0,57,0.00,,,-99.99,,2013-02-06 05:52:00,
2013-02-06 01:01:00,13.0,1.0,-100.00,South,180,1.0,1.0,57,0.00,,,-99.99,,2013-02-06 06:01:00,
2013-02-06 01:11:00,13.0,1.0,-100.00,South,190,1.0,1.0,58,0.00,,,-99.99,,2013-02-06 06:11:00,
2013-02-06 01:21:00,13.0,2.0,-100.00,South,185,0.0,1.0,59,0.00,,,-99.99,,2013-02-06 06:21:00,
2013-02-06 01:32:00,13.0,2.0,-100.00,SW,235,1.0,1.0,59,0.00,,,-99.99,,2013-02-06 06:32:00,
2013-02-06 01:42:00,13.0,0.0,-100.00,SSW,205,1.0,2.0,55,0.00,,,-99.99,,2013-02-06 06:42:00,
2013-02-06 01:51:00,13.0,1.0,-100.00,South,190,0.0,1.0,57,0.00,,,-99.99,,2013-02-06 06:51:00,
2013-02-06 02:02:00,13.0,0.0,-100.00,SE,145,0.0,1.0,54,0.00,,,-99.99,,2013-02-06 07:02:00,
2013-02-06 02:11:00,13.0,1.0,-100.00,ESE,115,1.0,2.0,56,0.00,,,-99.99,,2013-02-06 07:11:00,
2013-02-06 02:22:00,13.0,0.0,-100.00,ESE,115,1.0,2.0,54,0.00,,,-99.99,,2013-02-06 07:22:00,
2013-02-06 02:32:00,14.0,1.0,-100.00,ESE,105,0.0,1.0,55,0.00,,,-99.99,,2013-02-06 07:32:00,
2013-02-06 02:42:00,14.0,0.0,-100.00,SE,135,1.0,1.0,54,0.00,,,-99.99,,2013-02-06 07:42:00,
2013-02-06 02:51:00,14.0,0.0,-100.00,SE,135,1.0,2.0,53,0.00,,,-99.99,,2013-02-06 07:51:00,
2013-02-06 03:01:00,14.0,0.0,-100.00,NE,50,1.0,3.0,54,0.04,,,-99.99,,2013-02-06 08:01:00,
2013-02-06 03:11:00,13.0,3.0,-100.00,East,80,1.0,2.0,61,0.01,,,-99.99,,2013-02-06 08:11:00,
2013-02-06 03:21:00,13.0,4.0,-100.00,NW,315,0.0,1.0,65,0.03,,,-99.99,,2013-02-06 08:21:00,
2013-02-06 03:32:00,13.0,5.0,-100.00,South,190,1.0,2.0,69,0.00,,,-99.99,,2013-02-06 08:32:00,
2013-02-06 03:42:00,13.0,5.0,-100.00,SE,130,1.0,3.0,70,0.00,,,-99.99,,2013-02-06 08:42:00,
2013-02-06 03:53:00,13.0,6.0,-100.00,South,175,1.0,3.0,71,0.06,,,-99.99,,2013-02-06 08:53:00,
2013-02-06 04:01:00,13.0,6.0,-100.00,SE,140,1.0,2.0,72,0.03,,,-99.99,,2013-02-06 09:01:00,
2013-02-06 04:11:00,13.0,6.0,-100.00,NW,305,1.0,1.0,74,0.00,,,-99.99,,2013-02-06 09:11:00,
2013-02-06 04:21:00,13.0,7.0,-100.00,West,260,1.0,2.0,75,0.00,,,-99.99,,2013-02-06 09:21:00,
2013-02-06 04:32:00,13.0,7.0,-100.00,East,85,1.0,4.0,76,0.00,,,-99.99,,2013-02-06 09:32:00,
2013-02-06 04:41:00,13.0,7.0,-100.00,SE,140,0.0,4.0,76,0.00,,,-99.99,,2013-02-06 09:41:00,
2013-02-06 04:52:00,13.0,7.0,-100.00,SSE,155,1.0,2.0,76,0.00,,,-99.99,,2013-02-06 09:52:00,
2013-02-06 05:01:00,13.0,8.0,-100.00,ESE,105,0.0,2.0,77,0.00,,,-99.99,,2013-02-06 10:01:00,
2013-02-06 05:11:00,14.0,8.0,-100.00,NNW,330,0.0,2.0,77,0.00,,,-99.99,,2013-02-06 10:11:00,
2013-02-06 05:21:00,14.0,8.0,-100.00,SSW,200,0.0,1.0,77,0.00,,,-99.99,,2013-02-06 10:21:00,
2013-02-06 05:31:00,14.0,8.0,-100.00,East,95,0.0,1.0,77,0.00,,,-99.99,,2013-02-06 10:31:00,
2013-02-06 05:42:00,14.0,8.0,-100.00,East,95,0.0,1.0,77,0.00,,,-99.99,,2013-02-06 10:42:00,
2013-02-06 05:52:00,14.0,8.0,-100.00,East,95,0.0,1.0,77,0.00,,,-99.99,,2013-02-06 10:52:00,
2013-02-06 06:01:00,14.0,8.0,-100.00,East,95,0.0,1.0,77,0.00,,,-99.99,,2013-02-06 11:01:00,
2013-02-06 06:11:00,14.0,9.0,-100.00,ESE,120,0.0,1.0,79,0.00,,,-99.99,,2013-02-06 11:11:00,
2013-02-06 06:22:00,14.0,8.0,-100.00,North,10,0.0,1.0,79,0.00,,,-99.99,,2013-02-06 11:22:00,
2013-02-06 06:32:00,14.0,8.0,-100.00,SE,145,1.0,2.0,79,0.00,,,-99.99,,2013-02-06 11:32:00,
2013-02-06 06:42:00,14.0,9.0,-100.00,NE,55,0.0,2.0,80,0.00,,,-99.99,,2013-02-06 11:42:00,
2013-02-06 06:52:00,14.0,9.0,-100.00,NE,50,0.0,1.0,79,0.00,,,-99.99,,2013-02-06 11:52:00,
2013-02-06 07:02:00,14.0,9.0,-100.00,SW,225,0.0,1.0,80,0.00,,,-99.99,,2013-02-06 12:02:00,
2013-02-06 07:12:00,14.0,9.0,-100.00,SE,135,0.0,1.0,80,0.00,,,-99.99,,2013-02-06 12:12:00,
2013-02-06 07:22:00,14.0,9.0,-100.00,NNE,15,1.0,2.0,80,0.00,,,-99.99,,2013-02-06 12:22:00,
2013-02-06 07:32:00,14.0,9.0,-100.00,NW,325,1.0,2.0,80,0.00,,,-99.99,,2013-02-06 12:32:00,
2013-02-06 07:42:00,14.0,9.0,-100.00,North,350,1.0,4.0,80,0.00,,,-99.99,,2013-02-06 12:42:00,
2013-02-06 07:52:00,14.0,9.0,-100.00,NW,325,0.0,2.0,80,0.00,,,-99.99,,2013-02-06 12:52:00,
2013-02-06 08:02:00,15.0,9.0,-100.00,ESE,120,1.0,2.0,79,0.00,,,-99.99,,2013-02-06 13:02:00,
2013-02-06 08:12:00,15.0,10.0,-100.00,ESE,110,0.0,2.0,79,0.00,,,-99.99,,2013-02-06 13:12:00,
2013-02-06 08:22:00,16.0,10.0,-100.00,West,260,0.0,1.0,78,0.00,,,-99.99,,2013-02-06 13:22:00,
2013-02-06 08:32:00,16.0,10.0,-100.00,SW,235,0.0,2.0,78,0.00,,,-99.99,,2013-02-06 13:32:00,
2013-02-06 08:42:00,16.0,10.0,-100.00,North,5,1.0,2.0,78,0.00,,,-99.99,,2013-02-06 13:42:00,
2013-02-06 08:52:00,16.0,11.0,-100.00,East,85,1.0,2.0,78,0.00,,,-99.99,,2013-02-06 13:52:00,
2013-02-06 09:02:00,17.0,11.0,-100.00,South,190,0.0,1.0,77,0.00,,,-99.99,,2013-02-06 14:02:00,
2013-02-06 09:11:00,17.0,11.0,-100.00,NNW,335,0.0,1.0,76,0.00,,,-99.99,,2013-02-06 14:11:00,
2013-02-06 09:22:00,18.0,12.0,-100.00,North,355,0.0,2.0,76,0.00,,,-99.99,,2013-02-06 14:22:00,
2013-02-06 09:32:00,19.0,12.0,-100.00,NE,35,1.0,2.0,75,0.00,,,-99.99,,2013-02-06 14:32:00,
2013-02-06 09:42:00,20.0,13.0,-100.00,NNE,15,1.0,3.0,74,0.00,,,-99.99,,2013-02-06 14:42:00,
2013-02-06 09:52:00,22.0,15.0,-100.00,SW,225,2.0,4.0,75,0.00,,,-99.99,,2013-02-06 14:52:00,
2013-02-06 10:02:00,24.0,16.0,-100.00,WSW,250,4.0,9.0,71,0.00,,,-99.99,,2013-02-06 15:02:00,
2013-02-06 10:11:00,24.0,16.0,-100.00,WSW,240,3.0,7.0,71,0.00,,,-99.99,,2013-02-06 15:11:00,
2013-02-06 10:21:00,24.0,16.0,-100.00,SW,235,2.0,10.0,70,0.00,,,-99.99,,2013-02-06 15:21:00,
2013-02-06 10:32:00,26.0,16.0,-100.00,WSW,250,3.0,9.0,67,0.00,,,-99.99,,2013-02-06 15:32:00,
2013-02-06 10:42:00,26.0,17.0,-100.00,SW,225,4.0,6.0,67,0.00,,,-99.99,,2013-02-06 15:42:00,
2013-02-06 10:52:00,27.0,17.0,-100.00,South,185,1.0,7.0,65,0.00,,,-99.99,,2013-02-06 15:52:00,
2013-02-06 11:01:00,28.0,17.0,-100.00,WSW,240,3.0,8.0,61,0.00,,,-99.99,,2013-02-06 16:01:00,
2013-02-06 11:11:00,27.0,16.0,-100.00,SW,225,4.0,10.0,63,0.00,,,-99.99,,2013-02-06 16:11:00,
2013-02-06 11:21:00,27.0,17.0,-100.00,SW,235,4.0,11.0,63,0.00,,,-99.99,,2013-02-06 16:21:00,
2013-02-06 11:32:00,28.0,17.0,-100.00,West,280,2.0,9.0,63,0.00,,,-99.99,,2013-02-06 16:32:00,
2013-02-06 11:42:00,28.0,18.0,-100.00,SW,225,2.0,7.0,66,0.03,,,-99.99,,2013-02-06 16:42:00,
2013-02-06 11:52:00,28.0,19.0,-100.00,SW,230,2.0,5.0,68,0.01,,,-99.99,,2013-02-06 16:52:00,
2013-02-06 12:02:00,28.0,20.0,-100.00,WSW,240,2.0,7.0,71,0.00,,,-99.99,,2013-02-06 17:02:00,
2013-02-06 12:11:00,27.0,19.0,-100.00,SW,235,2.0,6.0,69,0.00,,,-99.99,,2013-02-06 17:11:00,
2013-02-06 12:22:00,28.0,18.0,-100.00,WNW,300,3.0,7.0,67,0.00,,,-99.99,,2013-02-06 17:22:00,
2013-02-06 12:32:00,28.0,18.0,-100.00,SW,235,4.0,7.0,64,0.00,,,-99.99,,2013-02-06 17:32:00,
2013-02-06 12:42:00,27.0,17.0,-100.00,WNW,285,4.0,12.0,65,0.00,,,-99.99,,2013-02-06 17:42:00,
2013-02-06 12:52:00,29.0,16.0,-100.00,NW,315,3.0,12.0,58,0.00,,,-99.99,,2013-02-06 17:52:00,
2013-02-06 13:02:00,29.0,14.0,-100.00,WNW,300,6.0,14.0,51,0.00,,,-99.99,,2013-02-06 18:02:00,
2013-02-06 13:11:00,28.0,17.0,-100.00,NNW,345,11.0,19.0,62,0.04,,,-99.99,,2013-02-06 18:11:00,
2013-02-06 13:23:00,29.0,14.0,-100.00,NNW,340,12.0,19.0,54,0.00,,,-99.99,,2013-02-06 18:23:00,
2013-02-06 13:32:00,27.0,16.0,-100.00,NW,320,13.0,17.0,63,0.00,,,-99.99,,2013-02-06 18:32:00,
2013-02-06 13:42:00,26.0,16.0,-100.00,NNW,330,12.0,21.0,65,0.00,,,-99.99,,2013-02-06 18:42:00,
2013-02-06 13:52:00,25.0,17.0,-100.00,NNW,340,7.0,21.0,73,0.18,,,-99.99,,2013-02-06 18:52:00,
2013-02-06 14:02:00,24.0,19.0,-100.00,NW,305,6.0,16.0,78,0.11,,,-99.99,,2013-02-06 19:02:00,
2013-02-06 14:11:00,24.0,15.0,-100.00,NNW,330,9.0,16.0,67,0.00,,,-99.99,,2013-02-06 19:11:00,
2013-02-06 14:21:00,24.0,13.0,-100.00,NNW,330,11.0,19.0,63,0.00,,,-99.99,,2013-02-06 19:21:00,
2013-02-06 14:32:00,25.0,13.0,-100.00,NW,320,6.0,15.0,60,0.00,,,-99.99,,2013-02-06 19:32:00,
2013-02-06 14:42:00,26.0,13.0,-100.00,NW,320,6.0,12.0,56,0.00,,,-99.99,,2013-02-06 19:42:00,
2013-02-06 14:52:00,26.0,11.0,-100.00,WNW,300,9.0,16.0,52,0.00,,,-99.99,,2013-02-06 19:52:00,
2013-02-06 15:01:00,25.0,10.0,-100.00,NNW,330,8.0,16.0,51,0.00,,,-99.99,,2013-02-06 20:01:00,
2013-02-06 15:11:00,24.0,9.0,-100.00,NW,325,12.0,23.0,50,0.00,,,-99.99,,2013-02-06 20:11:00,
2013-02-06 15:21:00,24.0,9.0,-100.00,NNW,330,11.0,17.0,51,0.00,,,-99.99,,2013-02-06 20:21:00,
2013-02-06 15:32:00,23.0,8.0,-100.00,NW,325,10.0,17.0,52,0.00,,,-99.99,,2013-02-06 20:32:00,
2013-02-06 15:42:00,23.0,8.0,-100.00,NNW,335,10.0,17.0,53,0.00,,,-99.99,,2013-02-06 20:42:00,
2013-02-06 15:52:00,23.0,8.0,-100.00,NNW,330,6.0,14.0,52,0.00,,,-99.99,,2013-02-06 20:52:00,
2013-02-06 16:02:00,22.0,7.0,-100.00,NW,325,10.0,21.0,50,0.00,,,-99.99,,2013-02-06 21:02:00,
2013-02-06 16:11:00,22.0,7.0,-100.00,NW,325,6.0,16.0,51,0.00,,,-99.99,,2013-02-06 21:11:00,
2013-02-06 16:21:00,22.0,7.0,-100.00,NW,305,6.0,22.0,52,0.00,,,-99.99,,2013-02-06 21:21:00,
2013-02-06 16:32:00,21.0,8.0,-100.00,NW,325,11.0,17.0,56,0.00,,,-99.99,,2013-02-06 21:32:00,
2013-02-06 16:42:00,20.0,7.0,-100.00,NW,325,11.0,19.0,55,0.00,,,-99.99,,2013-02-06 21:42:00,
2013-02-06 16:51:00,20.0,6.0,-100.00,NW,325,10.0,16.0,55,0.00,,,-99.99,,2013-02-06 21:51:00,
2013-02-06 17:01:00,19.0,5.0,-100.00,NW,325,10.0,16.0,54,0.00,,,-99.99,,2013-02-06 22:01:00,
2013-02-06 17:11:00,19.0,4.0,-100.00,NNW,330,13.0,19.0,51,0.00,,,-99.99,,2013-02-06 22:11:00,
2013-02-06 17:21:00,18.0,3.0,-100.00,NNW,335,8.0,19.0,51,0.00,,,-99.99,,2013-02-06 22:21:00,
2013-02-06 17:32:00,18.0,2.0,-100.00,NW,325,11.0,16.0,49,0.00,,,-99.99,,2013-02-06 22:32:00,
2013-02-06 17:42:00,18.0,2.0,-100.00,NW,320,7.0,19.0,48,0.00,,,-99.99,,2013-02-06 22:42:00,
2013-02-06 17:52:00,17.0,1.0,-100.00,NNW,330,8.0,17.0,47,0.00,,,-99.99,,2013-02-06 22:52:00,
2013-02-06 18:01:00,17.0,-1.0,-100.00,NW,320,11.0,18.0,44,0.00,,,-99.99,,2013-02-06 23:01:00,
2013-02-06 18:11:00,17.0,-1.0,-100.00,NNW,330,6.0,18.0,44,0.00,,,-99.99,,2013-02-06 23:11:00,
2013-02-06 18:21:00,16.0,-3.0,-100.00,NNW,330,12.0,19.0,40,0.00,,,-99.99,,2013-02-06 23:21:00,
2013-02-06 18:32:00,16.0,-5.0,-100.00,NNW,340,12.0,19.0,38,0.00,,,-99.99,,2013-02-06 23:32:00,
2013-02-06 18:42:00,15.0,-7.0,-100.00,NNW,335,7.0,14.0,36,0.00,,,-99.99,,2013-02-06 23:42:00,
2013-02-06 18:52:00,15.0,-7.0,-100.00,West,270,4.0,14.0,36,0.00,,,-99.99,,2013-02-06 23:52:00,
2013-02-06 19:02:00,15.0,-8.0,-100.00,NNW,335,9.0,16.0,34,0.00,,,-99.99,,2013-02-07 00:02:00,
2013-02-06 19:11:00,14.0,-9.0,-100.00,NNW,335,10.0,18.0,33,0.00,,,-99.99,,2013-02-07 00:11:00,
2013-02-06 19:21:00,14.0,-9.0,-100.00,NW,315,7.0,16.0,34,0.00,,,-99.99,,2013-02-07 00:21:00,
2013-02-06 19:32:00,14.0,-9.0,-100.00,NW,325,9.0,19.0,34,0.00,,,-99.99,,2013-02-07 00:32:00,
2013-02-06 19:42:00,14.0,-10.0,-100.00,NNW,340,9.0,18.0,33,0.00,,,-99.99,,2013-02-07 00:42:00,
2013-02-06 19:52:00,13.0,-9.0,-100.00,NNW,345,4.0,12.0,35,0.00,,,-99.99,,2013-02-07 00:52:00,
2013-02-06 20:01:00,13.0,-10.0,-100.00,NW,310,5.0,12.0,34,0.00,,,-99.99,,2013-02-07 01:01:00,
2013-02-06 20:11:00,13.0,-10.0,-100.00,West,275,1.0,13.0,35,0.00,,,-99.99,,2013-02-07 01:11:00,
2013-02-06 20:21:00,12.0,-9.0,-100.00,SSW,200,1.0,8.0,36,0.00,,,-99.99,,2013-02-07 01:21:00,
2013-02-06 20:32:00,12.0,-11.0,-100.00,NW,325,6.0,14.0,34,0.00,,,-99.99,,2013-02-07 01:32:00,
2013-02-06 20:42:00,12.0,-10.0,-100.00,WNW,290,4.0,12.0,35,0.00,,,-99.99,,2013-02-07 01:42:00,
2013-02-06 20:52:00,11.0,-12.0,-100.00,NW,315,4.0,10.0,33,0.00,,,-99.99,,2013-02-07 01:52:00,
2013-02-06 21:01:00,11.0,-12.0,-100.00,North,0,2.0,11.0,34,0.00,,,-99.99,,2013-02-07 02:01:00,
2013-02-06 21:11:00,10.0,-12.0,-100.00,NNW,330,6.0,13.0,34,0.00,,,-99.99,,2013-02-07 02:11:00,
2013-02-06 21:21:00,10.0,-12.0,-100.00,West,260,2.0,20.0,35,0.00,,,-99.99,,2013-02-07 02:21:00,
2013-02-06 21:32:00,10.0,-13.0,-100.00,NNW,345,6.0,17.0,34,0.00,,,-99.99,,2013-02-07 02:32:00,
2013-02-06 21:41:00,10.0,-13.0,-100.00,NNW,345,6.0,17.0,34,0.00,,,-99.99,,2013-02-07 02:41:00,
2013-02-06 21:51:00,10.0,-13.0,-100.00,NNW,345,6.0,17.0,34,0.00,,,-99.99,,2013-02-07 02:51:00,
2013-02-06 22:02:00,9.0,-14.0,-100.00,NW,305,5.0,18.0,33,0.00,,,-99.99,,2013-02-07 03:02:00,
2013-02-06 22:11:00,9.0,-14.0,-100.00,NNW,345,6.0,13.0,33,0.00,,,-99.99,,2013-02-07 03:11:00,
2013-02-06 22:21:00,9.0,-14.0,-100.00,NW,325,4.0,14.0,34,0.00,,,-99.99,,2013-02-07 03:21:00,
2013-02-06 22:32:00,9.0,-13.0,-100.00,NNW,340,7.0,14.0,34,0.00,,,-99.99,,2013-02-07 03:32:00,
2013-02-06 22:42:00,9.0,-13.0,-100.00,WNW,295,4.0,10.0,36,0.00,,,-99.99,,2013-02-07 03:42:00,
2013-02-06 22:52:00,8.0,-13.0,-100.00,NW,320,4.0,11.0,36,0.00,,,-99.99,,2013-02-07 03:52:00,
2013-02-06 23:01:00,8.0,-12.0,-100.00,NW,325,3.0,9.0,38,0.00,,,-99.99,,2013-02-07 04:01:00,
2013-02-06 23:11:00,8.0,-12.0,-100.00,NW,320,4.0,10.0,37,0.00,,,-99.99,,2013-02-07 04:11:00,
2013-02-06 23:22:00,8.0,-12.0,-100.00,NW,305,6.0,12.0,37,0.00,,,-99.99,,2013-02-07 04:22:00,
2013-02-06 23:32:00,8.0,-12.0,-100.00,NNW,330,6.0,14.0,37,0.00,,,-99.99,,2013-02-07 04:32:00,
2013-02-06 23:41:00,8.0,-12.0,-100.00,SW,225,1.0,4.0,39,0.00,,,-99.99,,2013-02-07 04:41:00,
2013-02-06 23:53:00,7.0,-11.0,-100.00,WSW,255,0.0,2.0,42,0.00,,,-99.99,,2013-02-07 04:53:00,